Time;durP1;ratioP1;P1;durP2;ratioP2;P2;SDS_P1;SDS_P2;PMS_P1;PMS_P2;Temp;Humidity;BMP_temperature;BMP_pressure;BME280_temperature;BME280_humidity;BME280_pressure;Samples;Min_cycle;Max_cycle;Signal;HPM_P1;HPM_P2
2021/01/08 00:00:46;;;;;;;13.60;6.50;;;;;;;2.87;100.00;100386.50;4936512;29;20074;-81
2021/01/08 00:03:12;;;;;;;13.05;6.43;;;;;;;2.83;100.00;100386.34;4955162;29;20123;-81
2021/01/08 00:05:37;;;;;;;15.10;7.80;;;;;;;2.80;100.00;100388.84;4937678;29;20031;-81
2021/01/08 00:08:04;;;;;;;13.48;6.30;;;;;;;2.84;100.00;100392.44;4956776;29;20042;-82
2021/01/08 00:10:30;;;;;;;14.55;6.50;;;;;;;2.85;100.00;100394.00;4936819;29;20036;-81
2021/01/08 00:12:56;;;;;;;10.90;5.97;;;;;;;2.84;100.00;100395.91;4951781;29;20461;-80
2021/01/08 00:15:21;;;;;;;11.63;6.40;;;;;;;2.86;100.00;100399.03;4947904;28;20435;-82
2021/01/08 00:17:47;;;;;;;11.73;6.15;;;;;;;2.85;100.00;100401.97;4929905;29;20043;-81
2021/01/08 00:20:13;;;;;;;10.60;5.85;;;;;;;2.83;100.00;100396.22;4955495;29;20089;-80
2021/01/08 00:22:38;;;;;;;11.43;6.28;;;;;;;2.77;100.00;100390.22;4936923;29;20054;-80
2021/01/08 00:25:04;;;;;;;11.90;5.85;;;;;;;2.76;100.00;100388.69;4956531;29;20035;-81
2021/01/08 00:27:50;;;;;;;10.52;5.63;;;;;;;2.62;100.00;100383.47;4954175;28;20038;-81
2021/01/08 00:30:19;;;;;;;10.20;5.68;;;;;;;2.77;100.00;100389.47;4891181;29;20048;-81
2021/01/08 00:32:44;;;;;;;12.75;6.30;;;;;;;2.75;100.00;100392.41;4891739;29;20607;-82
2021/01/08 00:35:10;;;;;;;12.68;5.97;;;;;;;2.72;100.00;100393.03;4884743;29;20040;-80
2021/01/08 00:37:36;;;;;;;10.73;6.15;;;;;;;2.68;100.00;100389.44;4897694;29;20039;-81
2021/01/08 00:40:03;;;;;;;10.23;5.88;;;;;;;2.68;100.00;100397.41;4898858;29;20035;-81
2021/01/08 00:42:28;;;;;;;12.07;5.95;;;;;;;2.70;100.00;100401.31;4915931;29;20072;-81
2021/01/08 00:44:55;;;;;;;11.85;6.15;;;;;;;2.67;100.00;100398.50;4902089;29;20083;-81
2021/01/08 00:47:20;;;;;;;11.18;6.57;;;;;;;2.65;100.00;100398.03;4900522;29;20043;-81
2021/01/08 00:49:46;;;;;;;10.20;5.90;;;;;;;2.68;100.00;100400.06;4897198;29;20118;-81
2021/01/08 00:52:12;;;;;;;11.98;6.20;;;;;;;2.68;100.00;100398.19;4898985;29;20045;-80
2021/01/08 00:54:38;;;;;;;12.35;6.75;;;;;;;2.64;100.00;100407.09;4889165;29;20046;-82
2021/01/08 00:57:23;;;;;;;9.80;5.63;;;;;;;2.67;100.00;100396.59;4897663;29;20043;-81
2021/01/08 00:59:49;;;;;;;11.45;6.07;;;;;;;2.66;100.00;100389.75;4897254;29;20122;-81
2021/01/08 01:02:15;;;;;;;10.82;5.80;;;;;;;2.63;100.00;100395.66;4894099;29;20116;-81
2021/01/08 01:04:40;;;;;;;10.48;5.70;;;;;;;2.58;100.00;100403.78;4880248;29;20033;-81
2021/01/08 01:07:05;;;;;;;10.65;5.78;;;;;;;2.58;100.00;100403.00;4926657;29;20499;-82
2021/01/08 01:09:31;;;;;;;9.18;5.70;;;;;;;2.59;100.00;100394.69;4951840;29;20041;-81
2021/01/08 01:12:17;;;;;;;9.95;6.13;;;;;;;2.60;100.00;100400.81;4934330;29;20035;-81
2021/01/08 01:15:03;;;;;;;11.20;6.32;;;;;;;2.51;100.00;100397.34;4945163;29;20050;-81
2021/01/08 01:17:28;;;;;;;10.40;6.15;;;;;;;2.50;100.00;100398.44;4889058;29;20135;-81
2021/01/08 01:19:54;;;;;;;10.18;6.05;;;;;;;2.46;100.00;100402.78;4868408;29;20528;-81
2021/01/08 01:22:20;;;;;;;10.65;6.03;;;;;;;2.44;100.00;100405.00;4882340;29;20517;-81
2021/01/08 01:24:45;;;;;;;9.25;5.57;;;;;;;2.25;100.00;100415.03;4866910;29;20048;-82
2021/01/08 01:27:11;;;;;;;12.02;5.72;;;;;;;2.32;100.00;100412.75;4892678;29;20044;-81
2021/01/08 01:29:36;;;;;;;8.05;5.40;;;;;;;2.35;100.00;100414.78;4883664;29;20055;-81
2021/01/08 01:32:02;;;;;;;12.10;6.38;;;;;;;2.40;100.00;100422.63;4864502;29;20047;-81
2021/01/08 01:34:27;;;;;;;9.15;5.63;;;;;;;2.44;100.00;100418.28;4887495;29;20595;-81
2021/01/08 01:36:53;;;;;;;9.38;5.75;;;;;;;2.47;100.00;100422.97;4864610;29;20054;-81
2021/01/08 01:39:18;;;;;;;9.65;5.53;;;;;;;2.51;100.00;100423.91;4877036;29;20052;-81
2021/01/08 01:41:44;;;;;;;9.25;5.72;;;;;;;2.55;100.00;100425.66;4878950;29;20073;-81
2021/01/08 01:44:10;;;;;;;9.02;5.38;;;;;;;2.53;100.00;100421.75;4878359;29;20635;-81
2021/01/08 01:46:35;;;;;;;10.32;5.55;;;;;;;2.64;100.00;100425.69;4876758;29;20048;-81
2021/01/08 01:49:01;;;;;;;9.32;5.18;;;;;;;2.64;100.00;100433.66;4881034;29;20052;-81
2021/01/08 01:51:27;;;;;;;11.20;5.80;;;;;;;2.64;100.00;100433.66;4903189;29;20044;-81
2021/01/08 01:53:53;;;;;;;7.93;5.20;;;;;;;2.65;100.00;100429.91;4909037;29;20031;-81
2021/01/08 01:56:19;;;;;;;8.23;5.25;;;;;;;2.62;100.00;100435.84;4942713;29;20042;-82
2021/01/08 01:58:44;;;;;;;8.43;5.35;;;;;;;2.56;100.00;100437.84;4934537;29;20103;-81
2021/01/08 02:01:10;;;;;;;10.43;5.78;;;;;;;2.52;100.00;100444.06;4946902;29;20118;-81
2021/01/08 02:03:51;;;;;;;9.48;5.40;;;;;;;2.56;100.00;100440.50;4952875;29;20027;-82
2021/01/08 02:06:21;;;;;;;10.20;5.38;;;;;;;2.57;100.00;100443.97;4952400;29;20027;-82
2021/01/08 02:08:55;;;;;;;9.02;5.65;;;;;;;2.56;100.00;100443.16;4936527;29;20559;-82
2021/01/08 02:11:26;;;;;;;8.27;5.13;;;;;;;2.57;100.00;100443.97;4949547;29;20031;-81
2021/01/08 02:14:05;;;;;;;8.43;4.95;;;;;;;2.48;100.00;100441.25;4930479;29;20027;-81
2021/01/08 02:16:33;;;;;;;10.10;5.10;;;;;;;2.41;100.00;100446.22;4929822;29;20063;-81
2021/01/08 02:19:00;;;;;;;8.75;4.82;;;;;;;2.54;100.00;100444.56;4953551;29;20102;-81
2021/01/08 02:21:31;;;;;;;8.15;5.13;;;;;;;2.56;100.00;100445.03;4953252;29;20118;-81
2021/01/08 02:23:59;;;;;;;7.60;4.55;;;;;;;2.71;100.00;100449.94;4962910;28;20043;-81
2021/01/08 02:26:26;;;;;;;7.80;4.80;;;;;;;2.55;100.00;100454.91;4953334;29;20073;-81
2021/01/08 02:29:12;;;;;;;6.93;4.50;;;;;;;2.52;100.00;100452.03;4955391;29;20535;-81
2021/01/08 02:31:38;;;;;;;8.50;4.82;;;;;;;2.53;100.00;100441.13;4914625;29;20052;-81
2021/01/08 02:34:05;;;;;;;7.43;4.72;;;;;;;2.33;100.00;100443.50;4885117;29;20178;-80
2021/01/08 02:36:51;;;;;;;8.00;4.60;;;;;;;2.32;100.00;100447.28;4896812;29;20101;-81
2021/01/08 02:39:17;;;;;;;9.45;4.45;;;;;;;2.37;100.00;100450.59;4844331;29;20053;-81
2021/01/08 02:41:45;;;;;;;8.35;4.75;;;;;;;2.39;100.00;100448.41;4868394;29;20099;-81
2021/01/08 02:44:19;;;;;;;8.20;4.57;;;;;;;2.34;100.00;100447.75;4850332;29;20048;-81
2021/01/08 02:46:46;;;;;;;7.07;4.20;;;;;;;2.43;100.00;100449.38;4861720;29;20057;-82
2021/01/08 02:49:11;;;;;;;7.13;4.35;;;;;;;2.40;100.00;100460.59;4836687;29;20041;-82
2021/01/08 02:51:40;;;;;;;7.72;3.90;;;;;;;2.55;100.00;100451.44;4860010;29;20045;-80
2021/01/08 02:54:08;;;;;;;8.65;4.07;;;;;;;2.47;100.00;100460.94;4836260;29;20029;-82
2021/01/08 02:56:54;;;;;;;7.43;3.88;;;;;;;2.59;100.00;100457.72;4843523;29;20113;-81
2021/01/08 02:59:21;;;;;;;7.28;4.07;;;;;;;2.61;100.00;100452.88;4867078;29;20056;-82
2021/01/08 03:01:48;;;;;;;8.60;4.13;;;;;;;2.56;100.00;100453.78;4831193;29;20499;-81
2021/01/08 03:04:14;;;;;;;7.28;3.78;;;;;;;2.44;100.00;100458.88;4831393;29;20051;-81
2021/01/08 03:06:41;;;;;;;8.07;3.97;;;;;;;2.43;100.00;100453.88;4864557;29;20030;-82
2021/01/08 03:09:07;;;;;;;7.47;4.20;;;;;;;2.44;100.00;100461.53;4872365;29;20055;-82
2021/01/08 03:11:32;;;;;;;7.85;4.43;;;;;;;2.44;100.00;100463.44;4905131;29;20036;-81
2021/01/08 03:13:59;;;;;;;11.75;4.72;;;;;;;2.39;100.00;100468.88;4887432;29;20049;-80
2021/01/08 03:16:24;;;;;;;9.43;4.80;;;;;;;2.35;100.00;100475.88;4916636;29;20455;-81
2021/01/08 03:18:50;;;;;;;8.75;4.60;;;;;;;2.34;100.00;100463.69;4948754;29;20035;-83
2021/01/08 03:21:16;;;;;;;8.77;4.47;;;;;;;2.32;100.00;100471.19;4942800;29;20403;-81
2021/01/08 03:23:41;;;;;;;9.07;4.85;;;;;;;2.40;100.00;100465.13;4942959;29;20046;-82
2021/01/08 03:26:07;;;;;;;9.30;5.05;;;;;;;2.31;100.00;100466.94;4958521;29;20476;-80
2021/01/08 03:28:39;;;;;;;9.75;4.70;;;;;;;2.26;100.00;100467.06;4958702;29;20046;-81
2021/01/08 03:31:04;;;;;;;7.85;4.43;;;;;;;2.30;100.00;100465.38;4944679;29;20031;-81
2021/01/08 03:33:30;;;;;;;11.93;5.80;;;;;;;2.28;100.00;100463.03;4961219;29;20031;-81
2021/01/08 03:35:56;;;;;;;11.07;5.20;;;;;;;2.31;100.00;100470.38;4944138;29;20031;-80
2021/01/08 03:38:21;;;;;;;10.35;5.65;;;;;;;2.37;100.00;100471.03;4960354;29;20062;-82
2021/01/08 03:40:46;;;;;;;10.32;5.13;;;;;;;2.22;100.00;100458.94;4943296;29;20037;-82
2021/01/08 03:43:12;;;;;;;13.18;5.88;;;;;;;2.26;100.00;100464.41;4946566;29;20035;-82
2021/01/08 03:45:38;;;;;;;12.60;5.28;;;;;;;2.23;100.00;100460.50;4935505;29;20093;-80
2021/01/08 03:48:05;;;;;;;10.73;5.40;;;;;;;2.14;100.00;100461.53;4974080;28;20046;-81
2021/01/08 03:50:31;;;;;;;12.35;5.90;;;;;;;2.12;100.00;100469.81;4958739;28;20023;-82
2021/01/08 03:52:56;;;;;;;15.90;6.32;;;;;;;2.11;100.00;100475.44;4944175;29;20042;-82
2021/01/08 03:55:23;;;;;;;11.32;5.88;;;;;;;2.14;100.00;100458.88;4944191;29;20023;-82
2021/01/08 03:57:48;;;;;;;12.45;6.22;;;;;;;2.13;100.00;100459.97;4938913;29;20039;-81
2021/01/08 04:00:14;;;;;;;12.45;6.40;;;;;;;2.22;100.00;100460.81;4960002;29;20049;-82
2021/01/08 04:02:40;;;;;;;12.50;6.32;;;;;;;2.19;100.00;100467.50;4966566;29;20046;-80
2021/01/08 04:05:08;;;;;;;12.95;6.40;;;;;;;2.13;100.00;100465.28;4955517;29;20050;-80
2021/01/08 04:07:33;;;;;;;11.82;6.15;;;;;;;2.23;100.00;100465.00;4958281;28;20027;-80
2021/01/08 04:09:59;;;;;;;14.75;6.20;;;;;;;2.21;100.00;100467.97;4936442;29;20382;-80
2021/01/08 04:12:26;;;;;;;15.77;6.30;;;;;;;2.23;100.00;100470.31;4951246;29;20051;-81
2021/01/08 04:14:51;;;;;;;13.38;6.78;;;;;;;2.23;100.00;100462.34;4956052;29;20035;-81
2021/01/08 04:17:17;;;;;;;15.60;7.32;;;;;;;2.19;100.00;100459.53;4955549;29;20421;-80
2021/01/08 04:19:42;;;;;;;15.00;7.45;;;;;;;2.20;100.00;100465.63;4939591;29;20110;-80
2021/01/08 04:22:09;;;;;;;15.93;7.38;;;;;;;2.22;100.00;100460.81;4935284;29;20588;-80
2021/01/08 04:24:34;;;;;;;14.68;7.40;;;;;;;2.15;100.00;100463.88;4955910;29;20035;-80
2021/01/08 04:27:01;;;;;;;13.32;6.88;;;;;;;2.20;100.00;100469.09;4938283;29;20662;-81
2021/01/08 04:29:26;;;;;;;17.48;6.72;;;;;;;2.25;100.00;100468.16;4954595;28;20038;-81
2021/01/08 04:31:52;;;;;;;21.02;7.15;;;;;;;2.28;100.00;100462.25;4952247;29;20035;-81
2021/01/08 04:34:17;;;;;;;16.17;7.45;;;;;;;2.33;100.00;100472.72;4938827;29;20259;-81
2021/01/08 04:36:43;;;;;;;15.43;7.45;;;;;;;2.25;100.00;100468.16;4952342;29;20042;-82
2021/01/08 04:39:11;;;;;;;18.63;7.88;;;;;;;2.35;100.00;100467.91;4950002;29;20039;-81
2021/01/08 04:41:36;;;;;;;17.67;7.80;;;;;;;2.39;100.00;100471.53;4936840;29;20019;-81
2021/01/08 04:44:23;;;;;;;16.67;7.68;;;;;;;2.46;100.00;100474.50;4953629;29;20042;-81
2021/01/08 04:46:51;;;;;;;18.95;7.90;;;;;;;2.41;100.00;100477.31;4913546;29;20046;-81
2021/01/08 04:49:19;;;;;;;16.52;7.30;;;;;;;2.36;100.00;100474.78;4882262;29;20050;-81
2021/01/08 04:51:46;;;;;;;19.83;8.05;;;;;;;2.35;100.00;100475.88;4916025;29;20098;-80
2021/01/08 04:54:12;;;;;;;19.05;8.10;;;;;;;2.36;100.00;100475.56;4914294;29;20048;-81
2021/01/08 04:56:42;;;;;;;23.55;8.38;;;;;;;2.34;100.00;100477.72;4916313;29;20024;-81
2021/01/08 04:59:08;;;;;;;19.90;8.55;;;;;;;2.33;100.00;100480.69;4909868;29;20091;-81
2021/01/08 05:01:35;;;;;;;22.05;8.27;;;;;;;2.37;100.00;100479.00;4913020;29;20059;-81
2021/01/08 05:04:00;;;;;;;20.88;7.82;;;;;;;2.48;100.00;100485.63;4891003;29;20099;-81
2021/01/08 05:06:26;;;;;;;16.83;7.60;;;;;;;2.45;100.00;100483.59;4911528;29;20640;-81
2021/01/08 05:08:52;;;;;;;17.55;7.70;;;;;;;2.43;100.00;100483.91;4898566;29;20047;-81
2021/01/08 05:11:24;;;;;;;20.15;7.65;;;;;;;2.43;100.00;100483.09;4906445;29;20048;-81
2021/01/08 05:14:01;;;;;;;17.70;7.80;;;;;;;2.30;100.00;100486.63;4897937;29;20036;-81
2021/01/08 05:16:29;;;;;;;16.77;7.20;;;;;;;2.40;100.00;100486.38;4912255;29;20028;-81
2021/01/08 05:18:57;;;;;;;16.33;7.25;;;;;;;2.39;100.00;100493.56;4896231;29;20040;-81
2021/01/08 05:21:26;;;;;;;16.35;6.97;;;;;;;2.37;100.00;100502.91;4908698;29;20032;-81
2021/01/08 05:23:53;;;;;;;17.20;6.95;;;;;;;2.32;100.00;100503.81;4909358;29;20534;-80
2021/01/08 05:26:19;;;;;;;15.57;7.00;;;;;;;2.21;100.00;100504.38;4945919;29;20039;-79
2021/01/08 05:28:52;;;;;;;15.73;7.00;;;;;;;2.20;100.00;100500.16;4940489;29;20031;-80
2021/01/08 05:31:20;;;;;;;16.48;7.47;;;;;;;2.24;100.00;100498.47;4943430;29;20074;-81
2021/01/08 05:33:47;;;;;;;16.30;7.07;;;;;;;2.17;100.00;100500.78;4945794;29;20399;-80
2021/01/08 05:36:14;;;;;;;21.65;8.70;;;;;;;2.29;100.00;100503.66;4942092;29;20035;-80
2021/01/08 05:38:42;;;;;;;16.52;7.07;;;;;;;2.34;100.00;100506.94;4942351;29;20039;-80
2021/01/08 05:41:10;;;;;;;18.25;7.57;;;;;;;2.44;100.00;100511.25;4942354;28;20929;-80
2021/01/08 05:43:38;;;;;;;19.23;8.63;;;;;;;2.30;100.00;100511.34;4936783;29;20408;-80
2021/01/08 05:46:10;;;;;;;21.52;8.38;;;;;;;2.37;100.00;100518.84;4948399;29;20496;-80
2021/01/08 05:48:38;;;;;;;22.90;8.27;;;;;;;2.39;100.00;100525.44;4949663;29;20043;-81
2021/01/08 05:51:04;;;;;;;22.85;8.48;;;;;;;2.42;100.00;100524.81;4946975;29;20035;-80
2021/01/08 05:53:31;;;;;;;23.20;8.35;;;;;;;2.40;100.00;100526.25;4952140;29;20050;-80
2021/01/08 05:55:58;;;;;;;24.95;8.93;;;;;;;2.46;100.00;100525.78;4943893;29;20050;-80
2021/01/08 05:58:25;;;;;;;26.38;10.05;;;;;;;2.44;100.00;100519.22;4949452;28;20040;-79
2021/01/08 06:00:57;;;;;;;20.23;8.75;;;;;;;2.40;100.00;100529.66;4944290;29;20035;-81
2021/01/08 06:03:24;;;;;;;21.05;8.25;;;;;;;2.47;100.00;100532.69;4951117;29;20031;-80
2021/01/08 06:05:54;;;;;;;20.65;8.52;;;;;;;2.53;100.00;100525.38;4944980;29;20091;-80
2021/01/08 06:08:46;;;;;;;21.33;8.65;;;;;;;2.50;100.00;100524.09;4951540;29;20035;-80
2021/01/08 06:11:19;;;;;;;;;;;;;;;2.38;100.00;100525.75;4925968;29;20051;-80
2021/01/08 06:13:50;;;;;;;17.75;7.65;;;;;;;2.34;100.00;100525.53;4948630;28;20376;-80
2021/01/08 06:16:18;;;;;;;17.77;7.60;;;;;;;2.32;100.00;100533.03;4941494;29;20510;-80
2021/01/08 06:18:46;;;;;;;20.02;8.40;;;;;;;2.34;100.00;100532.75;4948014;29;20051;-80
2021/01/08 06:21:11;;;;;;;21.13;9.35;;;;;;;2.39;100.00;100533.41;4936152;29;20496;-80
2021/01/08 06:23:39;;;;;;;20.17;8.50;;;;;;;2.41;100.00;100535.75;4945330;29;20035;-80
2021/01/08 06:26:10;;;;;;;19.95;8.13;;;;;;;2.35;100.00;100540.41;4937323;29;20062;-81
2021/01/08 06:28:56;;;;;;;24.27;9.55;;;;;;;2.32;100.00;100541.00;4944455;29;20043;-80
2021/01/08 06:31:22;;;;;;;21.85;8.65;;;;;;;2.39;100.00;100532.63;4855612;29;20064;-80
2021/01/08 06:34:01;;;;;;;21.65;9.05;;;;;;;2.35;100.00;100536.97;4860665;29;20048;-80
2021/01/08 06:36:28;;;;;;;24.75;8.90;;;;;;;2.36;100.00;100538.56;4860217;29;20511;-81
2021/01/08 06:39:04;;;;;;;24.17;9.32;;;;;;;2.39;100.00;100543.25;4857161;29;20053;-80
2021/01/08 06:41:50;;;;;;;21.30;9.25;;;;;;;2.35;100.00;100537.75;4847668;29;20037;-81
2021/01/08 06:44:23;;;;;;;21.92;9.15;;;;;;;2.37;100.00;100543.56;4787140;29;20071;-79
2021/01/08 06:46:52;;;;;;;25.08;9.65;;;;;;;2.43;100.00;100539.69;4806909;29;20053;-78
2021/01/08 06:49:19;;;;;;;27.40;10.38;;;;;;;2.48;100.00;100552.84;4805408;29;20050;-79
2021/01/08 06:51:45;;;;;;;25.25;9.57;;;;;;;2.46;100.00;100555.00;4808660;29;20054;-79
2021/01/08 06:54:12;;;;;;;26.60;10.38;;;;;;;2.53;100.00;100550.06;4798479;29;20041;-79
2021/01/08 06:56:41;;;;;;;26.83;10.30;;;;;;;2.42;100.00;100554.03;4792989;29;20085;-80
2021/01/08 06:59:16;;;;;;;25.90;10.52;;;;;;;2.55;100.00;100555.06;4812620;29;20133;-79
2021/01/08 07:01:52;;;;;;;30.08;10.68;;;;;;;2.51;100.00;100551.47;4799248;29;20440;-79
2021/01/08 07:04:26;;;;;;;29.58;10.30;;;;;;;2.51;100.00;100562.88;4799910;29;20048;-79
2021/01/08 07:06:58;;;;;;;34.00;10.80;;;;;;;2.49;100.00;100564.25;4800216;29;20039;-79
2021/01/08 07:09:33;;;;;;;29.10;10.80;;;;;;;2.52;100.00;100564.44;4871003;29;20890;-79
2021/01/08 07:12:00;;;;;;;28.67;10.48;;;;;;;2.51;100.00;100560.22;4862810;29;20052;-78
2021/01/08 07:14:25;;;;;;;25.20;10.05;;;;;;;2.52;100.00;100569.75;4879168;29;20728;-79
2021/01/08 07:16:53;;;;;;;32.47;10.43;;;;;;;2.55;100.00;100579.00;4887211;29;20077;-79
2021/01/08 07:19:23;;;;;;;26.80;11.07;;;;;;;2.56;100.00;100578.69;4867334;29;20089;-79
2021/01/08 07:21:53;;;;;;;28.20;10.55;;;;;;;2.60;100.00;100586.84;4927697;29;20050;-79
2021/01/08 07:24:24;;;;;;;30.23;11.67;;;;;;;2.64;100.00;100593.13;4966329;28;20031;-80
2021/01/08 07:26:50;;;;;;;31.15;11.80;;;;;;;2.58;100.00;100597.78;4950372;28;20043;-80
2021/01/08 07:29:25;;;;;;;29.27;10.90;;;;;;;2.54;100.00;100590.69;4949918;29;20031;-79
2021/01/08 07:31:52;;;;;;;33.05;12.10;;;;;;;2.62;100.00;100598.75;4940848;29;20121;-78
2021/01/08 07:34:17;;;;;;;32.83;12.27;;;;;;;2.70;100.00;100598.00;4954314;29;20126;-79
2021/01/08 07:36:54;;;;;;;32.90;11.07;;;;;;;2.66;100.00;100598.91;4942448;29;20059;-80
2021/01/08 07:39:40;;;;;;;32.75;11.70;;;;;;;2.75;100.00;100599.75;4936952;29;20040;-79
2021/01/08 07:42:32;;;;;;;29.23;12.27;;;;;;;2.63;100.00;100602.19;4950263;29;20039;-79
2021/01/08 07:44:58;;;;;;;30.90;11.25;;;;;;;2.62;100.00;100608.56;4952177;29;20039;-79
2021/01/08 07:47:25;;;;;;;35.50;12.43;;;;;;;2.64;100.00;100611.72;4956946;29;20039;-79
2021/01/08 07:50:07;;;;;;;31.30;12.10;;;;;;;2.64;100.00;100609.06;4952505;29;20066;-79
2021/01/08 07:52:41;;;;;;;33.22;12.18;;;;;;;2.63;100.00;100616.25;4970691;28;20035;-79
2021/01/08 07:55:07;;;;;;;30.95;11.32;;;;;;;2.71;100.00;100614.72;4954888;29;20420;-79
2021/01/08 07:58:03;;;;;;;31.92;11.32;;;;;;;2.69;100.00;100616.94;4949337;29;20400;-79
2021/01/08 08:00:31;;;;;;;27.88;11.73;;;;;;;2.68;100.00;100613.47;4956050;28;20050;-80
2021/01/08 08:02:58;;;;;;;28.13;11.45;;;;;;;2.62;100.00;100621.88;4955211;29;20043;-80
2021/01/08 08:05:28;;;;;;;27.33;11.43;;;;;;;2.67;100.00;100624.41;4946991;29;20038;-80
2021/01/08 08:08:01;;;;;;;33.50;12.07;;;;;;;2.77;100.00;100624.16;4946158;28;20130;-80
2021/01/08 08:10:27;;;;;;;32.67;12.52;;;;;;;2.83;100.00;100622.19;4948420;29;20035;-80
2021/01/08 08:12:53;;;;;;;30.88;11.38;;;;;;;2.77;100.00;100623.38;4947855;29;20110;-81
2021/01/08 08:15:20;;;;;;;29.20;12.55;;;;;;;2.81;100.00;100641.06;4935116;29;20050;-80
2021/01/08 08:17:46;;;;;;;32.90;12.13;;;;;;;2.79;100.00;100637.91;4951703;29;20038;-80
2021/01/08 08:20:23;;;;;;;31.95;12.43;;;;;;;2.75;100.00;100640.41;4947363;29;20518;-81
2021/01/08 08:22:50;;;;;;;31.90;12.73;;;;;;;2.70;100.00;100645.84;4959442;28;20103;-79
2021/01/08 08:25:31;;;;;;;32.15;12.35;;;;;;;2.69;100.00;100638.19;4937487;29;20034;-81
2021/01/08 08:27:58;;;;;;;;;;;;;;;2.67;100.00;100640.38;4952696;28;20046;-80
2021/01/08 08:30:28;;;;;;;28.23;11.40;;;;;;;2.82;100.00;100641.84;4962124;28;19989;-80
2021/01/08 08:32:54;;;;;;;27.33;11.75;;;;;;;2.79;100.00;100635.25;4947256;29;20039;-80
2021/01/08 08:35:20;;;;;;;28.25;11.68;;;;;;;2.73;100.00;100650.56;4936157;29;20031;-80
2021/01/08 08:37:48;;;;;;;30.52;12.40;;;;;;;2.73;100.00;100657.75;4931107;29;20039;-81
2021/01/08 08:40:14;;;;;;;26.98;11.18;;;;;;;2.75;100.00;100660.88;4947555;29;20071;-81
2021/01/08 08:42:40;;;;;;;27.58;11.55;;;;;;;2.82;100.00;100652.50;4941867;29;20066;-81
2021/01/08 08:45:21;;;;;;;29.27;11.93;;;;;;;2.88;100.00;100661.91;4934764;29;20031;-81
2021/01/08 08:47:47;;;;;;;29.85;11.90;;;;;;;2.84;100.00;100655.63;4953129;29;20042;-81
2021/01/08 08:50:15;;;;;;;27.60;11.85;;;;;;;2.85;100.00;100668.63;4931736;29;20039;-80
2021/01/08 08:52:41;;;;;;;26.13;11.15;;;;;;;2.88;100.00;100662.72;4949925;29;20039;-81
2021/01/08 08:55:06;;;;;;;28.20;12.00;;;;;;;2.95;100.00;100668.38;4947765;29;20051;-80
2021/01/08 08:57:32;;;;;;;26.52;11.23;;;;;;;2.96;100.00;100672.59;4960005;29;20036;-80
2021/01/08 08:59:58;;;;;;;28.70;12.20;;;;;;;2.96;100.00;100672.59;4952370;28;20407;-80
2021/01/08 09:02:26;;;;;;;34.22;12.75;;;;;;;3.00;100.00;100680.78;4949968;29;20031;-80
2021/01/08 09:04:52;;;;;;;25.42;12.00;;;;;;;2.98;100.00;100689.03;4935795;29;20118;-79
2021/01/08 09:07:52;;;;;;;31.20;12.57;;;;;;;3.00;100.00;100686.84;4933175;29;20044;-80
2021/01/08 09:10:46;;;;;;;29.83;11.82;;;;;;;3.01;100.00;100683.13;4948167;29;20508;-79
2021/01/08 09:13:18;;;;;;;29.63;12.73;;;;;;;3.00;100.00;100686.84;4935528;28;20035;-81
2021/01/08 09:16:04;;;;;;;25.70;11.68;;;;;;;3.03;100.00;100683.59;4945985;29;20039;-80
2021/01/08 09:18:37;;;;;;;28.20;11.27;;;;;;;3.03;100.00;100690.78;4954630;28;20101;-80
2021/01/08 09:21:22;;;;;;;24.08;11.07;;;;;;;3.06;100.00;100682.22;4944243;29;20508;-80
2021/01/08 09:23:49;;;;;;;27.33;12.52;;;;;;;3.03;100.00;100686.25;4948789;29;20039;-79
2021/01/08 09:26:18;;;;;;;26.00;12.30;;;;;;;2.96;100.00;100688.53;4940029;29;20031;-80
2021/01/08 09:28:55;;;;;;;24.63;11.35;;;;;;;2.96;100.00;100688.53;4945025;29;20061;-80
2021/01/08 09:31:38;;;;;;;25.95;11.75;;;;;;;2.99;100.00;100693.28;4942525;29;20043;-80
2021/01/08 09:34:04;;;;;;;24.98;10.98;;;;;;;2.98;100.00;100699.66;4946824;29;20031;-80
2021/01/08 09:36:31;;;;;;;23.63;11.13;;;;;;;3.05;100.00;100696.59;4930800;29;20012;-78
2021/01/08 09:39:19;;;;;;;24.55;11.43;;;;;;;3.05;100.00;100701.91;4949531;29;20122;-80
2021/01/08 09:41:53;;;;;;;25.58;11.45;;;;;;;3.12;100.00;100699.59;4876912;29;20045;-81
2021/01/08 09:44:19;;;;;;;25.85;11.65;;;;;;;3.14;100.00;100706.19;4883727;29;20120;-80
2021/01/08 09:46:51;;;;;;;28.42;12.07;;;;;;;3.09;100.00;100698.34;4899510;29;20036;-79
2021/01/08 09:49:16;;;;;;;25.48;11.80;;;;;;;3.15;100.00;100710.44;4880371;29;20036;-81
2021/01/08 09:51:45;;;;;;;26.58;11.38;;;;;;;3.18;100.00;100699.19;4910706;29;20072;-80
2021/01/08 09:54:11;;;;;;;24.42;11.43;;;;;;;3.19;100.00;100708.75;4894043;29;20040;-80
2021/01/08 09:56:36;;;;;;;28.30;11.52;;;;;;;3.06;100.00;100709.59;4907239;29;20035;-81
2021/01/08 09:59:13;;;;;;;25.38;11.10;;;;;;;3.05;100.00;100705.38;4896094;29;20055;-79
2021/01/08 10:01:51;;;;;;;27.63;11.45;;;;;;;2.96;100.00;100701.84;4894130;29;20036;-80
2021/01/08 10:04:33;;;;;;;26.42;11.85;;;;;;;2.96;100.00;100711.72;4888370;29;20130;-81
2021/01/08 10:07:04;;;;;;;26.80;11.65;;;;;;;2.95;100.00;100712.78;4897427;29;20048;-81
2021/01/08 10:09:52;;;;;;;28.00;12.83;;;;;;;2.98;100.00;100706.88;4897932;29;20042;-79
2021/01/08 10:12:24;;;;;;;27.77;12.35;;;;;;;2.99;100.00;100706.56;4882366;29;20422;-80
2021/01/08 10:14:58;;;;;;;30.58;12.35;;;;;;;3.01;100.00;100704.41;4901302;29;20036;-82
2021/01/08 10:17:23;;;;;;;31.25;12.55;;;;;;;3.00;100.00;100702.03;4912499;29;20071;-80
2021/01/08 10:19:50;;;;;;;23.98;12.23;;;;;;;3.05;100.00;100708.03;4944279;29;20073;-80
2021/01/08 10:22:19;;;;;;;27.58;12.00;;;;;;;3.04;100.00;100703.78;4948423;29;20049;-80
2021/01/08 10:24:45;;;;;;;27.15;12.52;;;;;;;3.02;100.00;100700.63;4930502;29;20038;-82
2021/01/08 10:27:11;;;;;;;29.13;13.20;;;;;;;3.05;100.00;100710.69;4950735;29;20032;-82
2021/01/08 10:29:41;;;;;;;25.13;11.55;;;;;;;3.03;100.00;100701.44;4931333;29;20098;-80
2021/01/08 10:32:11;;;;;;;28.58;11.65;;;;;;;2.98;100.00;100704.22;4949931;28;20038;-80
2021/01/08 10:34:42;;;;;;;24.98;11.15;;;;;;;3.00;100.00;100710.03;4965514;28;20041;-82
2021/01/08 10:37:16;;;;;;;24.17;11.77;;;;;;;2.97;100.00;100707.94;4936659;29;20031;-81
2021/01/08 10:39:41;;;;;;;25.17;11.63;;;;;;;2.96;100.00;100704.50;4945498;28;20039;-81
2021/01/08 10:42:08;;;;;;;26.80;11.73;;;;;;;3.00;100.00;100710.03;4935060;29;20050;-81
2021/01/08 10:44:34;;;;;;;25.00;11.38;;;;;;;3.03;100.00;100712.84;4941071;29;20038;-81
2021/01/08 10:46:59;;;;;;;24.20;11.02;;;;;;;3.02;100.00;100705.94;4935954;29;20039;-82
2021/01/08 10:49:25;;;;;;;24.30;10.88;;;;;;;2.98;100.00;100706.88;4929453;29;20043;-80
2021/01/08 10:51:50;;;;;;;22.83;11.93;;;;;;;2.97;100.00;100710.63;4948438;29;20055;-82
2021/01/08 10:54:18;;;;;;;23.92;10.93;;;;;;;2.98;100.00;100712.97;4946620;29;20043;-81
2021/01/08 10:56:44;;;;;;;28.88;11.80;;;;;;;3.00;100.00;100715.34;4938866;29;20440;-81
2021/01/08 10:59:11;;;;;;;25.83;11.25;;;;;;;3.08;100.00;100709.31;4944046;29;20039;-80
2021/01/08 11:01:44;;;;;;;23.05;11.70;;;;;;;3.08;100.00;100712.72;4936474;29;20615;-79
2021/01/08 11:04:11;;;;;;;23.73;11.55;;;;;;;3.08;100.00;100710.06;4934375;29;20071;-80
2021/01/08 11:06:38;;;;;;;23.70;11.65;;;;;;;3.04;100.00;100717.06;4954062;29;20026;-81
2021/01/08 11:09:08;;;;;;;22.73;11.23;;;;;;;3.05;100.00;100715.22;4936679;29;20036;-81
2021/01/08 11:11:34;;;;;;;23.88;11.27;;;;;;;3.02;100.00;100710.50;4955226;29;20562;-81
2021/01/08 11:14:01;;;;;;;25.20;11.40;;;;;;;3.05;100.00;100718.66;4939511;29;20043;-80
2021/01/08 11:16:30;;;;;;;21.35;10.32;;;;;;;3.07;100.00;100708.50;4952590;29;20110;-80
2021/01/08 11:18:56;;;;;;;23.25;10.85;;;;;;;3.07;100.00;100711.16;4936701;29;20039;-80
2021/01/08 11:21:26;;;;;;;24.67;11.50;;;;;;;3.13;100.00;100712.63;4938976;29;20038;-81
2021/01/08 11:23:51;;;;;;;22.90;11.02;;;;;;;3.14;100.00;100714.19;4941487;29;20027;-81
2021/01/08 11:26:27;;;;;;;23.27;10.93;;;;;;;3.08;100.00;100711.97;4929184;29;20802;-81